sensor_id;sensor_type;location;lat;lon;timestamp;pressure;altitude;pressure_sealevel;temperature;humidity
51369;BME280;37459;51.416;5.502;2022-11-25T00:00:45;100368.84;;;8.34;98.46
51369;BME280;37459;51.416;5.502;2022-11-25T00:03:12;100371.16;;;8.37;98.38
51369;BME280;37459;51.416;5.502;2022-11-25T00:05:39;100363.28;;;8.36;98.67
51369;BME280;37459;51.416;5.502;2022-11-25T00:08:06;100364.91;;;8.37;99.64
51369;BME280;37459;51.416;5.502;2022-11-25T00:10:32;100366.41;;;8.39;98.78
51369;BME280;37459;51.416;5.502;2022-11-25T00:12:59;100376.94;;;8.41;99.55
51369;BME280;37459;51.416;5.502;2022-11-25T00:15:26;100367.84;;;8.49;98.96
51369;BME280;37459;51.416;5.502;2022-11-25T00:17:52;100366.63;;;8.45;98.90
51369;BME280;37459;51.416;5.502;2022-11-25T00:20:20;100361.25;;;8.45;98.68
51369;BME280;37459;51.416;5.502;2022-11-25T00:22:47;100352.56;;;8.42;99.10
51369;BME280;37459;51.416;5.502;2022-11-25T00:25:13;100365.16;;;8.49;99.01
51369;BME280;37459;51.416;5.502;2022-11-25T00:27:40;100359.38;;;8.45;98.93
51369;BME280;37459;51.416;5.502;2022-11-25T00:30:07;100356.69;;;8.45;99.48
51369;BME280;37459;51.416;5.502;2022-11-25T00:32:34;100322.38;;;8.27;99.12
51369;BME280;37459;51.416;5.502;2022-11-25T00:35:01;100355.06;;;8.44;99.23
51369;BME280;37459;51.416;5.502;2022-11-25T00:37:30;100338.91;;;8.37;99.44
51369;BME280;37459;51.416;5.502;2022-11-25T00:39:57;100351.31;;;8.45;99.88
51369;BME280;37459;51.416;5.502;2022-11-25T00:42:24;100341.19;;;8.47;98.67
51369;BME280;37459;51.416;5.502;2022-11-25T00:45:19;100339.75;;;8.45;99.82
51369;BME280;37459;51.416;5.502;2022-11-25T00:47:46;100336.88;;;8.46;99.31
51369;BME280;37459;51.416;5.502;2022-11-25T00:50:12;100338.72;;;8.46;99.56
51369;BME280;37459;51.416;5.502;2022-11-25T00:52:40;100333.97;;;8.48;100.00
51369;BME280;37459;51.416;5.502;2022-11-25T00:55:07;100327.13;;;8.38;99.72
51369;BME280;37459;51.416;5.502;2022-11-25T00:57:34;100341.81;;;8.42;99.89
51369;BME280;37459;51.416;5.502;2022-11-25T01:00:01;100346.78;;;8.46;100.00
51369;BME280;37459;51.416;5.502;2022-11-25T01:02:27;100340.56;;;8.45;99.82
51369;BME280;37459;51.416;5.502;2022-11-25T01:04:54;100351.13;;;8.47;100.00
51369;BME280;37459;51.416;5.502;2022-11-25T01:07:20;100349.69;;;8.51;99.91
51369;BME280;37459;51.416;5.502;2022-11-25T01:09:48;100354.44;;;8.49;100.00
51369;BME280;37459;51.416;5.502;2022-11-25T01:12:15;100356.28;;;8.48;99.52
51369;BME280;37459;51.416;5.502;2022-11-25T01:14:41;100358.75;;;8.50;100.00
51369;BME280;37459;51.416;5.502;2022-11-25T01:17:08;100364.13;;;8.50;100.00
51369;BME280;37459;51.416;5.502;2022-11-25T01:19:35;100352.97;;;8.53;100.00
51369;BME280;37459;51.416;5.502;2022-11-25T01:22:04;100356.28;;;8.55;100.00
51369;BME280;37459;51.416;5.502;2022-11-25T01:24:31;100353.38;;;8.50;100.00
51369;BME280;37459;51.416;5.502;2022-11-25T01:26:58;100360.22;;;8.52;100.00
51369;BME280;37459;51.416;5.502;2022-11-25T01:29:26;100360.41;;;8.57;99.94
51369;BME280;37459;51.416;5.502;2022-11-25T01:31:53;100371.34;;;8.56;100.00
51369;BME280;37459;51.416;5.502;2022-11-25T01:34:22;100364.97;;;8.57;100.00
51369;BME280;37459;51.416;5.502;2022-11-25T01:36:49;100371.78;;;8.53;100.00
51369;BME280;37459;51.416;5.502;2022-11-25T01:39:17;100350.28;;;8.39;100.00
51369;BME280;37459;51.416;5.502;2022-11-25T01:41:45;100370.34;;;8.57;100.00
51369;BME280;37459;51.416;5.502;2022-11-25T01:44:15;100375.91;;;8.55;100.00
51369;BME280;37459;51.416;5.502;2022-11-25T01:49:33;100369.94;;;8.47;100.00
51369;BME280;37459;51.416;5.502;2022-11-25T01:52:04;100385.59;;;8.56;100.00
51369;BME280;37459;51.416;5.502;2022-11-25T01:54:34;100393.47;;;8.58;100.00
51369;BME280;37459;51.416;5.502;2022-11-25T01:57:05;100386.47;;;8.57;100.00
51369;BME280;37459;51.416;5.502;2022-11-25T01:59:37;100395.97;;;8.59;100.00
51369;BME280;37459;51.416;5.502;2022-11-25T02:02:05;100403.81;;;8.61;100.00
51369;BME280;37459;51.416;5.502;2022-11-25T02:04:34;100398.44;;;8.61;100.00
51369;BME280;37459;51.416;5.502;2022-11-25T02:07:07;100412.47;;;8.63;100.00
51369;BME280;37459;51.416;5.502;2022-11-25T02:09:38;100413.72;;;8.60;100.00
51369;BME280;37459;51.416;5.502;2022-11-25T02:12:06;100399.03;;;8.50;100.00
51369;BME280;37459;51.416;5.502;2022-11-25T02:14:34;100414.13;;;8.64;100.00
51369;BME280;37459;51.416;5.502;2022-11-25T02:17:01;100424.88;;;8.64;100.00
51369;BME280;37459;51.416;5.502;2022-11-25T02:19:31;100407.72;;;8.58;100.00
51369;BME280;37459;51.416;5.502;2022-11-25T02:22:05;100421.16;;;8.65;100.00
51369;BME280;37459;51.416;5.502;2022-11-25T02:24:40;100405.47;;;8.49;100.00
51369;BME280;37459;51.416;5.502;2022-11-25T02:27:09;100431.91;;;8.65;100.00
51369;BME280;37459;51.416;5.502;2022-11-25T02:29:36;100441.81;;;8.64;100.00
51369;BME280;37459;51.416;5.502;2022-11-25T02:32:03;100443.06;;;8.69;100.00
51369;BME280;37459;51.416;5.502;2022-11-25T02:34:30;100447.00;;;8.73;100.00
51369;BME280;37459;51.416;5.502;2022-11-25T02:36:57;100447.19;;;8.71;100.00
51369;BME280;37459;51.416;5.502;2022-11-25T02:39:24;100454.25;;;8.72;100.00
51369;BME280;37459;51.416;5.502;2022-11-25T02:41:53;100446.81;;;8.68;100.00
51369;BME280;37459;51.416;5.502;2022-11-25T02:44:22;100456.94;;;8.72;100.00
51369;BME280;37459;51.416;5.502;2022-11-25T02:46:49;100463.13;;;8.66;100.00
51369;BME280;37459;51.416;5.502;2022-11-25T02:49:15;100473.06;;;8.66;100.00
51369;BME280;37459;51.416;5.502;2022-11-25T02:51:43;100474.88;;;8.72;100.00
51369;BME280;37459;51.416;5.502;2022-11-25T02:54:10;100460.00;;;8.69;100.00
51369;BME280;37459;51.416;5.502;2022-11-25T02:56:38;100458.16;;;8.63;100.00
51369;BME280;37459;51.416;5.502;2022-11-25T02:59:05;100448.44;;;8.55;100.00
51369;BME280;37459;51.416;5.502;2022-11-25T03:01:33;100451.34;;;8.54;100.00
51369;BME280;37459;51.416;5.502;2022-11-25T03:04:00;100433.56;;;8.53;100.00
51369;BME280;37459;51.416;5.502;2022-11-25T03:06:28;100428.59;;;8.50;100.00
51369;BME280;37459;51.416;5.502;2022-11-25T03:08:55;100413.09;;;8.45;100.00
51369;BME280;37459;51.416;5.502;2022-11-25T03:11:21;100414.16;;;8.44;100.00
51369;BME280;37459;51.416;5.502;2022-11-25T03:14:08;100393.06;;;8.41;100.00
51369;BME280;37459;51.416;5.502;2022-11-25T03:16:36;100382.91;;;8.36;100.00
51369;BME280;37459;51.416;5.502;2022-11-25T03:19:03;100377.53;;;8.36;100.00
51369;BME280;37459;51.416;5.502;2022-11-25T03:21:30;100380.22;;;8.36;100.00
51369;BME280;37459;51.416;5.502;2022-11-25T03:23:56;100370.75;;;8.40;100.00
51369;BME280;37459;51.416;5.502;2022-11-25T03:26:23;100358.72;;;8.36;100.00
51369;BME280;37459;51.416;5.502;2022-11-25T03:28:50;100355.03;;;8.31;100.00
51369;BME280;37459;51.416;5.502;2022-11-25T03:31:16;100357.31;;;8.27;100.00
51369;BME280;37459;51.416;5.502;2022-11-25T03:33:44;100365.97;;;8.22;100.00
51369;BME280;37459;51.416;5.502;2022-11-25T03:36:11;100373.22;;;8.22;100.00
51369;BME280;37459;51.416;5.502;2022-11-25T03:38:37;100392.00;;;8.22;100.00
51369;BME280;37459;51.416;5.502;2022-11-25T03:41:04;100425.88;;;8.16;100.00
51369;BME280;37459;51.416;5.502;2022-11-25T03:43:31;100448.78;;;8.12;100.00
51369;BME280;37459;51.416;5.502;2022-11-25T03:45:59;100455.59;;;8.08;100.00
51369;BME280;37459;51.416;5.502;2022-11-25T03:48:26;100453.34;;;8.12;100.00
51369;BME280;37459;51.416;5.502;2022-11-25T03:50:54;100452.50;;;8.05;100.00
51369;BME280;37459;51.416;5.502;2022-11-25T03:53:20;100442.34;;;8.07;100.00
51369;BME280;37459;51.416;5.502;2022-11-25T03:55:47;100451.88;;;8.02;100.00
51369;BME280;37459;51.416;5.502;2022-11-25T03:58:13;100465.28;;;8.02;100.00
51369;BME280;37459;51.416;5.502;2022-11-25T04:00:40;100473.13;;;8.04;100.00
51369;BME280;37459;51.416;5.502;2022-11-25T04:03:06;100480.34;;;8.03;100.00
51369;BME280;37459;51.416;5.502;2022-11-25T04:05:33;100474.97;;;7.97;100.00
51369;BME280;37459;51.416;5.502;2022-11-25T04:08:01;100478.28;;;7.99;100.00
51369;BME280;37459;51.416;5.502;2022-11-25T04:10:30;100479.28;;;7.98;100.00
51369;BME280;37459;51.416;5.502;2022-11-25T04:12:57;100478.06;;;7.94;100.00
51369;BME280;37459;51.416;5.502;2022-11-25T04:15:22;100482.81;;;7.92;100.00
51369;BME280;37459;51.416;5.502;2022-11-25T04:17:49;100477.00;;;7.88;100.00
51369;BME280;37459;51.416;5.502;2022-11-25T04:20:16;100489.59;;;7.88;100.00
51369;BME280;37459;51.416;5.502;2022-11-25T04:22:43;100493.09;;;7.81;100.00
51369;BME280;37459;51.416;5.502;2022-11-25T04:25:11;100502.41;;;7.86;100.00
51369;BME280;37459;51.416;5.502;2022-11-25T04:27:37;100498.44;;;7.81;100.00
51369;BME280;37459;51.416;5.502;2022-11-25T04:30:05;100506.31;;;7.83;100.00
51369;BME280;37459;51.416;5.502;2022-11-25T04:32:32;100504.63;;;7.75;100.00
51369;BME280;37459;51.416;5.502;2022-11-25T04:34:58;100502.38;;;7.79;100.00
51369;BME280;37459;51.416;5.502;2022-11-25T04:37:25;100506.31;;;7.83;100.00
51369;BME280;37459;51.416;5.502;2022-11-25T04:39:51;100518.06;;;7.82;100.00
51369;BME280;37459;51.416;5.502;2022-11-25T04:42:19;100522.78;;;7.80;100.00
51369;BME280;37459;51.416;5.502;2022-11-25T04:44:59;100512.63;;;7.69;100.00
51369;BME280;37459;51.416;5.502;2022-11-25T04:47:27;100533.31;;;7.75;100.00
51369;BME280;37459;51.416;5.502;2022-11-25T04:49:54;100526.50;;;7.72;100.00
51369;BME280;37459;51.416;5.502;2022-11-25T04:52:20;100531.88;;;7.79;100.00
51369;BME280;37459;51.416;5.502;2022-11-25T04:54:47;100536.19;;;7.73;100.00
51369;BME280;37459;51.416;5.502;2022-11-25T04:57:14;100522.31;;;7.70;100.00
51369;BME280;37459;51.416;5.502;2022-11-25T04:59:42;100537.84;;;7.74;100.00
51369;BME280;37459;51.416;5.502;2022-11-25T05:02:12;100542.78;;;7.71;100.00
51369;BME280;37459;51.416;5.502;2022-11-25T05:04:40;100539.50;;;7.75;100.00
51369;BME280;37459;51.416;5.502;2022-11-25T05:07:07;100541.53;;;7.73;100.00
51369;BME280;37459;51.416;5.502;2022-11-25T05:09:34;100546.88;;;7.67;100.00
51369;BME280;37459;51.416;5.502;2022-11-25T05:12:01;100556.38;;;7.69;100.00
51369;BME280;37459;51.416;5.502;2022-11-25T05:14:27;100548.06;;;7.57;100.00
51369;BME280;37459;51.416;5.502;2022-11-25T05:16:55;100560.31;;;7.67;100.00
51369;BME280;37459;51.416;5.502;2022-11-25T05:19:22;100557.56;;;7.60;100.00
51369;BME280;37459;51.416;5.502;2022-11-25T05:21:48;100555.09;;;7.58;100.00
51369;BME280;37459;51.416;5.502;2022-11-25T05:24:15;100549.69;;;7.52;100.00
51369;BME280;37459;51.416;5.502;2022-11-25T05:26:41;100551.78;;;7.56;100.00
51369;BME280;37459;51.416;5.502;2022-11-25T05:29:08;100549.88;;;7.50;100.00
51369;BME280;37459;51.416;5.502;2022-11-25T05:31:35;100557.13;;;7.56;100.00
51369;BME280;37459;51.416;5.502;2022-11-25T05:34:03;100557.91;;;7.50;100.00
51369;BME280;37459;51.416;5.502;2022-11-25T05:36:30;100564.97;;;7.51;100.00
51369;BME280;37459;51.416;5.502;2022-11-25T05:38:56;100561.41;;;7.44;100.00
51369;BME280;37459;51.416;5.502;2022-11-25T05:41:23;100562.03;;;7.46;100.00
51369;BME280;37459;51.416;5.502;2022-11-25T05:43:50;100559.38;;;7.46;100.00
51369;BME280;37459;51.416;5.502;2022-11-25T05:46:17;100557.91;;;7.50;100.00
51369;BME280;37459;51.416;5.502;2022-11-25T05:48:43;100560.19;;;7.47;100.00
51369;BME280;37459;51.416;5.502;2022-11-25T05:51:11;100568.19;;;7.40;100.00
51369;BME280;37459;51.416;5.502;2022-11-25T05:53:38;100568.97;;;7.34;100.00
51369;BME280;37459;51.416;5.502;2022-11-25T05:56:06;100565.59;;;7.25;100.00
51369;BME280;37459;51.416;5.502;2022-11-25T05:58:32;100569.78;;;7.34;100.00
51369;BME280;37459;51.416;5.502;2022-11-25T06:00:59;100571.47;;;7.35;100.00
51369;BME280;37459;51.416;5.502;2022-11-25T06:03:27;100582.56;;;7.32;100.00
51369;BME280;37459;51.416;5.502;2022-11-25T06:05:54;100572.25;;;7.29;100.00
51369;BME280;37459;51.416;5.502;2022-11-25T06:08:22;100579.47;;;7.29;100.00
51369;BME280;37459;51.416;5.502;2022-11-25T06:10:48;100586.31;;;7.38;100.00
51369;BME280;37459;51.416;5.502;2022-11-25T06:13:15;100585.69;;;7.36;100.00
51369;BME280;37459;51.416;5.502;2022-11-25T06:15:42;100561.88;;;7.26;100.00
51369;BME280;37459;51.416;5.502;2022-11-25T06:18:10;100577.41;;;7.31;100.00
51369;BME280;37459;51.416;5.502;2022-11-25T06:20:37;100583.34;;;7.26;100.00
51369;BME280;37459;51.416;5.502;2022-11-25T06:23:05;100584.56;;;7.24;100.00
51369;BME280;37459;51.416;5.502;2022-11-25T06:25:33;100589.50;;;7.20;100.00
51369;BME280;37459;51.416;5.502;2022-11-25T06:27:59;100598.72;;;7.17;100.00
51369;BME280;37459;51.416;5.502;2022-11-25T06:30:27;100608.81;;;7.15;100.00
51369;BME280;37459;51.416;5.502;2022-11-25T06:32:54;100616.88;;;7.15;100.00
51369;BME280;37459;51.416;5.502;2022-11-25T06:35:20;100617.03;;;7.07;100.00
51369;BME280;37459;51.416;5.502;2022-11-25T06:37:47;100606.72;;;7.11;100.00
51369;BME280;37459;51.416;5.502;2022-11-25T06:40:13;100615.84;;;7.16;100.00
51369;BME280;37459;51.416;5.502;2022-11-25T06:42:41;100617.66;;;7.09;100.00
51369;BME280;37459;51.416;5.502;2022-11-25T06:45:09;100612.78;;;6.98;100.00
51369;BME280;37459;51.416;5.502;2022-11-25T06:47:36;100623.66;;;7.11;100.00
51369;BME280;37459;51.416;5.502;2022-11-25T06:50:03;100626.72;;;7.08;100.00
51369;BME280;37459;51.416;5.502;2022-11-25T06:52:30;100632.31;;;7.13;100.00
51369;BME280;37459;51.416;5.502;2022-11-25T06:54:57;100637.31;;;7.16;100.00
51369;BME280;37459;51.416;5.502;2022-11-25T06:57:23;100634.63;;;7.16;100.00
51369;BME280;37459;51.416;5.502;2022-11-25T06:59:51;100636.25;;;7.17;100.00
51369;BME280;37459;51.416;5.502;2022-11-25T07:02:18;100643.25;;;7.12;100.00
51369;BME280;37459;51.416;5.502;2022-11-25T07:04:44;100643.44;;;7.10;100.00
51369;BME280;37459;51.416;5.502;2022-11-25T07:07:11;100635.22;;;7.12;100.00
51369;BME280;37459;51.416;5.502;2022-11-25T07:09:37;100644.00;;;7.06;100.00
51369;BME280;37459;51.416;5.502;2022-11-25T07:12:04;100649.56;;;7.04;100.00
51369;BME280;37459;51.416;5.502;2022-11-25T07:14:31;100647.91;;;7.03;100.00
51369;BME280;37459;51.416;5.502;2022-11-25T07:16:59;100644.41;;;7.03;100.00
51369;BME280;37459;51.416;5.502;2022-11-25T07:19:25;100650.94;;;7.00;100.00
51369;BME280;37459;51.416;5.502;2022-11-25T07:21:52;100663.72;;;6.98;100.00
51369;BME280;37459;51.416;5.502;2022-11-25T07:24:18;100667.78;;;6.94;100.00
51369;BME280;37459;51.416;5.502;2022-11-25T07:26:45;100674.66;;;6.96;100.00
51369;BME280;37459;51.416;5.502;2022-11-25T07:29:13;100680.06;;;7.03;100.00
51369;BME280;37459;51.416;5.502;2022-11-25T07:31:41;100693.59;;;6.95;100.00
51369;BME280;37459;51.416;5.502;2022-11-25T07:34:12;100657.34;;;6.99;100.00
51369;BME280;37459;51.416;5.502;2022-11-25T07:36:39;100695.00;;;7.12;100.00
51369;BME280;37459;51.416;5.502;2022-11-25T07:39:09;100700.53;;;7.11;100.00
51369;BME280;37459;51.416;5.502;2022-11-25T07:41:36;100676.97;;;6.85;100.00
51369;BME280;37459;51.416;5.502;2022-11-25T07:44:04;100707.25;;;7.00;100.00
51369;BME280;37459;51.416;5.502;2022-11-25T07:46:33;100710.06;;;6.92;100.00
51369;BME280;37459;51.416;5.502;2022-11-25T07:49:01;100716.59;;;6.89;100.00
51369;BME280;37459;51.416;5.502;2022-11-25T07:51:31;100725.28;;;6.91;100.00
51369;BME280;37459;51.416;5.502;2022-11-25T07:53:59;100730.84;;;6.90;100.00
51369;BME280;37459;51.416;5.502;2022-11-25T07:56:28;100731.22;;;6.87;100.00
51369;BME280;37459;51.416;5.502;2022-11-25T07:58:55;100751.25;;;6.91;100.00
51369;BME280;37459;51.416;5.502;2022-11-25T08:01:22;100758.00;;;6.87;100.00
51369;BME280;37459;51.416;5.502;2022-11-25T08:03:49;100759.41;;;6.83;100.00
51369;BME280;37459;51.416;5.502;2022-11-25T08:06:18;100756.06;;;6.81;100.00
51369;BME280;37459;51.416;5.502;2022-11-25T08:08:46;100765.41;;;6.85;100.00
51369;BME280;37459;51.416;5.502;2022-11-25T08:11:15;100752.56;;;6.80;100.00
51369;BME280;37459;51.416;5.502;2022-11-25T08:13:43;100772.06;;;6.89;100.00
51369;BME280;37459;51.416;5.502;2022-11-25T08:16:11;100767.25;;;6.84;100.00
51369;BME280;37459;51.416;5.502;2022-11-25T08:18:38;100771.06;;;6.90;100.00
51369;BME280;37459;51.416;5.502;2022-11-25T08:21:06;100778.81;;;6.85;100.00
51369;BME280;37459;51.416;5.502;2022-11-25T08:23:34;100785.44;;;6.89;100.00
51369;BME280;37459;51.416;5.502;2022-11-25T08:26:03;100771.78;;;6.84;100.00
51369;BME280;37459;51.416;5.502;2022-11-25T08:28:30;100785.84;;;6.86;100.00
51369;BME280;37459;51.416;5.502;2022-11-25T08:31:00;100786.66;;;6.86;100.00
51369;BME280;37459;51.416;5.502;2022-11-25T08:33:27;100788.97;;;6.89;100.00
51369;BME280;37459;51.416;5.502;2022-11-25T08:35:54;100786.34;;;6.96;100.00
51369;BME280;37459;51.416;5.502;2022-11-25T08:38:20;100790.47;;;6.92;100.00
51369;BME280;37459;51.416;5.502;2022-11-25T08:40:47;100793.75;;;6.94;100.00
51369;BME280;37459;51.416;5.502;2022-11-25T08:43:15;100787.94;;;6.90;100.00
51369;BME280;37459;51.416;5.502;2022-11-25T08:45:44;100790.88;;;6.95;100.00
51369;BME280;37459;51.416;5.502;2022-11-25T08:48:10;100793.97;;;6.92;100.00
51369;BME280;37459;51.416;5.502;2022-11-25T08:50:37;100802.44;;;6.96;100.00
51369;BME280;37459;51.416;5.502;2022-11-25T08:53:04;100797.06;;;6.96;100.00
51369;BME280;37459;51.416;5.502;2022-11-25T08:55:30;100804.75;;;6.99;100.00
51369;BME280;37459;51.416;5.502;2022-11-25T08:57:57;100792.19;;;6.99;100.00
51369;BME280;37459;51.416;5.502;2022-11-25T09:00:25;100805.66;;;7.06;100.00
51369;BME280;37459;51.416;5.502;2022-11-25T09:02:52;100804.66;;;7.07;100.00
51369;BME280;37459;51.416;5.502;2022-11-25T09:05:18;100806.31;;;7.08;100.00
51369;BME280;37459;51.416;5.502;2022-11-25T09:07:45;100812.28;;;7.25;100.00
51369;BME280;37459;51.416;5.502;2022-11-25T09:10:14;100820.16;;;7.27;100.00
51369;BME280;37459;51.416;5.502;2022-11-25T09:12:41;100821.44;;;7.31;100.00
51369;BME280;37459;51.416;5.502;2022-11-25T09:15:09;100817.72;;;7.32;100.00
51369;BME280;37459;51.416;5.502;2022-11-25T09:17:37;100820.28;;;7.40;100.00
51369;BME280;37459;51.416;5.502;2022-11-25T09:20:05;100820.94;;;7.42;100.00
51369;BME280;37459;51.416;5.502;2022-11-25T09:22:32;100823.16;;;7.38;100.00
51369;BME280;37459;51.416;5.502;2022-11-25T09:24:58;100833.06;;;7.38;100.00
51369;BME280;37459;51.416;5.502;2022-11-25T09:27:25;100834.06;;;7.37;100.00
51369;BME280;37459;51.416;5.502;2022-11-25T09:29:52;100832.66;;;7.41;100.00
51369;BME280;37459;51.416;5.502;2022-11-25T09:32:18;100835.56;;;7.39;100.00
51369;BME280;37459;51.416;5.502;2022-11-25T09:34:46;100850.63;;;7.40;100.00
51369;BME280;37459;51.416;5.502;2022-11-25T09:37:13;100841.75;;;7.40;100.00
51369;BME280;37459;51.416;5.502;2022-11-25T09:39:39;100846.72;;;7.43;100.00
51369;BME280;37459;51.416;5.502;2022-11-25T09:42:19;100852.16;;;7.50;100.00
51369;BME280;37459;51.416;5.502;2022-11-25T09:45:16;100859.63;;;7.54;100.00
51369;BME280;37459;51.416;5.502;2022-11-25T09:48:20;100864.63;;;7.57;100.00
51369;BME280;37459;51.416;5.502;2022-11-25T09:51:00;100869.59;;;7.60;100.00
51369;BME280;37459;51.416;5.502;2022-11-25T09:53:40;100879.97;;;7.64;100.00
51369;BME280;37459;51.416;5.502;2022-11-25T09:56:13;100874.03;;;7.68;100.00
51369;BME280;37459;51.416;5.502;2022-11-25T09:58:45;100867.06;;;7.74;100.00
51369;BME280;37459;51.416;5.502;2022-11-25T10:01:16;100875.75;;;7.76;100.00
51369;BME280;37459;51.416;5.502;2022-11-25T10:03:46;100878.31;;;7.84;100.00
51369;BME280;37459;51.416;5.502;2022-11-25T10:06:19;100883.94;;;7.89;100.00
51369;BME280;37459;51.416;5.502;2022-11-25T10:08:48;100891.22;;;7.95;100.00
51369;BME280;37459;51.416;5.502;2022-11-25T10:11:21;100886.94;;;8.01;100.00
51369;BME280;37459;51.416;5.502;2022-11-25T10:13:54;100896.53;;;8.10;100.00
51369;BME280;37459;51.416;5.502;2022-11-25T10:16:31;100893.31;;;8.21;100.00
51369;BME280;37459;51.416;5.502;2022-11-25T10:19:00;100899.38;;;8.30;100.00
51369;BME280;37459;51.416;5.502;2022-11-25T10:21:29;100905.94;;;8.42;100.00
51369;BME280;37459;51.416;5.502;2022-11-25T10:23:55;100910.59;;;8.55;100.00
51369;BME280;37459;51.416;5.502;2022-11-25T10:26:28;100915.59;;;8.65;100.00
51369;BME280;37459;51.416;5.502;2022-11-25T10:29:03;100926.66;;;8.77;100.00
51369;BME280;37459;51.416;5.502;2022-11-25T10:31:34;100924.63;;;8.79;100.00
51369;BME280;37459;51.416;5.502;2022-11-25T10:34:10;100929.41;;;8.83;100.00
51369;BME280;37459;51.416;5.502;2022-11-25T10:36:43;100929.00;;;8.87;100.00
51369;BME280;37459;51.416;5.502;2022-11-25T10:39:13;100932.53;;;8.87;100.00
51369;BME280;37459;51.416;5.502;2022-11-25T10:41:45;100943.91;;;8.89;100.00
51369;BME280;37459;51.416;5.502;2022-11-25T10:44:21;100946.22;;;8.92;100.00
51369;BME280;37459;51.416;5.502;2022-11-25T10:46:58;100949.13;;;8.97;100.00
51369;BME280;37459;51.416;5.502;2022-11-25T10:49:35;100935.84;;;8.89;100.00
51369;BME280;37459;51.416;5.502;2022-11-25T10:52:09;100948.94;;;8.99;100.00
51369;BME280;37459;51.416;5.502;2022-11-25T10:54:37;100951.84;;;9.04;100.00
51369;BME280;37459;51.416;5.502;2022-11-25T10:57:16;100941.28;;;8.96;99.96
51369;BME280;37459;51.416;5.502;2022-11-25T10:59:53;100946.84;;;8.94;100.00
51369;BME280;37459;51.416;5.502;2022-11-25T11:02:23;100954.72;;;8.96;100.00
51369;BME280;37459;51.416;5.502;2022-11-25T11:04:56;100961.34;;;9.00;99.79
51369;BME280;37459;51.416;5.502;2022-11-25T11:07:25;100959.28;;;9.02;99.06
51369;BME280;37459;51.416;5.502;2022-11-25T11:09:52;100972.09;;;9.00;99.51
51369;BME280;37459;51.416;5.502;2022-11-25T11:12:21;100968.63;;;9.06;97.66
51369;BME280;37459;51.416;5.502;2022-11-25T11:14:48;100972.34;;;9.05;97.71
51369;BME280;37459;51.416;5.502;2022-11-25T11:17:30;100968.00;;;9.04;98.61
51369;BME280;37459;51.416;5.502;2022-11-25T11:20:13;100983.47;;;9.02;98.59
51369;BME280;37459;51.416;5.502;2022-11-25T11:22:49;101000.69;;;9.08;98.57
51369;BME280;37459;51.416;5.502;2022-11-25T11:25:27;100986.28;;;9.15;97.31
51369;BME280;37459;51.416;5.502;2022-11-25T11:27:53;100997.09;;;9.22;97.30
51369;BME280;37459;51.416;5.502;2022-11-25T11:30:22;100999.56;;;9.23;96.78
51369;BME280;37459;51.416;5.502;2022-11-25T11:32:55;100995.44;;;9.28;96.45
51369;BME280;37459;51.416;5.502;2022-11-25T11:35:28;100990.84;;;9.21;96.48
51369;BME280;37459;51.416;5.502;2022-11-25T11:38:02;100999.22;;;9.33;94.71
51369;BME280;37459;51.416;5.502;2022-11-25T11:40:37;101004.59;;;9.33;94.28
51369;BME280;37459;51.416;5.502;2022-11-25T11:43:35;101013.72;;;9.39;94.40
51369;BME280;37459;51.416;5.502;2022-11-25T11:46:14;101012.06;;;9.38;94.40
51369;BME280;37459;51.416;5.502;2022-11-25T11:48:52;101010.81;;;9.34;93.92
51369;BME280;37459;51.416;5.502;2022-11-25T11:51:30;101024.47;;;9.39;94.19
51369;BME280;37459;51.416;5.502;2022-11-25T11:54:05;101018.53;;;9.43;93.45
51369;BME280;37459;51.416;5.502;2022-11-25T11:56:37;101026.38;;;9.45;92.74
51369;BME280;37459;51.416;5.502;2022-11-25T11:59:23;101017.03;;;9.41;93.47
51369;BME280;37459;51.416;5.502;2022-11-25T12:02:02;101028.44;;;9.43;94.27
51369;BME280;37459;51.416;5.502;2022-11-25T12:04:36;101026.19;;;9.46;93.68
51369;BME280;37459;51.416;5.502;2022-11-25T12:07:06;101011.63;;;9.34;93.36
51369;BME280;37459;51.416;5.502;2022-11-25T12:09:40;101023.88;;;9.37;93.16
51369;BME280;37459;51.416;5.502;2022-11-25T12:12:13;101029.88;;;9.39;93.31
51369;BME280;37459;51.416;5.502;2022-11-25T12:14:46;101024.44;;;9.32;92.87
51369;BME280;37459;51.416;5.502;2022-11-25T12:17:18;101024.06;;;9.35;93.25
51369;BME280;37459;51.416;5.502;2022-11-25T12:19:52;101037.13;;;9.38;92.66
51369;BME280;37459;51.416;5.502;2022-11-25T12:22:24;101036.47;;;9.36;93.39
51369;BME280;37459;51.416;5.502;2022-11-25T12:25:00;101051.38;;;9.39;92.76
51369;BME280;37459;51.416;5.502;2022-11-25T12:27:32;101045.44;;;9.43;92.44
51369;BME280;37459;51.416;5.502;2022-11-25T12:30:03;101051.00;;;9.42;91.52
51369;BME280;37459;51.416;5.502;2022-11-25T12:32:44;101044.22;;;9.46;92.23
51369;BME280;37459;51.416;5.502;2022-11-25T12:35:22;101050.88;;;9.50;91.83
51369;BME280;37459;51.416;5.502;2022-11-25T12:37:57;101059.31;;;9.47;92.60
51369;BME280;37459;51.416;5.502;2022-11-25T12:40:32;101058.50;;;9.46;92.95
51369;BME280;37459;51.416;5.502;2022-11-25T12:43:11;101071.72;;;9.41;92.69
51369;BME280;37459;51.416;5.502;2022-11-25T12:45:43;101075.47;;;9.47;92.63
51369;BME280;37459;51.416;5.502;2022-11-25T12:48:10;101084.94;;;9.43;92.70
51369;BME280;37459;51.416;5.502;2022-11-25T12:50:48;101083.94;;;9.44;92.70
51369;BME280;37459;51.416;5.502;2022-11-25T12:53:21;101079.97;;;9.40;93.24
51369;BME280;37459;51.416;5.502;2022-11-25T12:55:53;101085.34;;;9.40;93.13
51369;BME280;37459;51.416;5.502;2022-11-25T12:58:34;101085.34;;;9.40;92.77
51369;BME280;37459;51.416;5.502;2022-11-25T13:01:23;101089.47;;;9.36;93.38
51369;BME280;37459;51.416;5.502;2022-11-25T13:04:28;101097.13;;;9.39;93.93
51369;BME280;37459;51.416;5.502;2022-11-25T13:07:23;101101.50;;;9.40;93.86